createdAt,value
2023-02-03T00:01:56.455Z,3.57
2023-02-03T00:04:22.911Z,3.50
2023-02-03T00:06:50.822Z,3.58
2023-02-03T00:09:17.728Z,3.49
2023-02-03T00:11:44.214Z,3.41
2023-02-03T00:14:10.665Z,3.52
2023-02-03T00:16:37.359Z,3.61
2023-02-03T00:19:03.852Z,3.51
2023-02-03T00:21:30.288Z,3.51
2023-02-03T00:23:56.744Z,3.56
2023-02-03T00:26:25.044Z,3.64
2023-02-03T00:28:51.695Z,3.46
2023-02-03T00:31:24.457Z,3.64
2023-02-03T00:33:57.789Z,3.60
2023-02-03T00:36:25.761Z,3.46
2023-02-03T00:38:52.655Z,3.70
2023-02-03T00:41:19.881Z,3.69
2023-02-03T00:43:46.394Z,3.51
2023-02-03T00:46:14.284Z,3.70
2023-02-03T00:48:40.907Z,3.68
2023-02-03T00:51:07.620Z,3.63
2023-02-03T00:53:34.061Z,3.68
2023-02-03T00:56:01.497Z,3.73
2023-02-03T00:58:27.959Z,3.75
2023-02-03T01:00:56.862Z,3.73
2023-02-03T01:03:24.529Z,3.56
2023-02-03T01:05:51.268Z,3.65
2023-02-03T01:08:19.510Z,3.75
2023-02-03T01:10:45.936Z,3.66
2023-02-03T01:13:12.477Z,3.69
2023-02-03T01:15:45.621Z,3.68
2023-02-03T01:18:12.142Z,3.75
2023-02-03T01:20:38.546Z,3.68
2023-02-03T01:23:05.037Z,3.76
2023-02-03T01:25:31.493Z,3.84
2023-02-03T01:27:57.921Z,3.72
2023-02-03T01:30:25.011Z,3.66
2023-02-03T01:32:51.714Z,3.71
2023-02-03T01:35:18.389Z,3.86
2023-02-03T01:37:44.794Z,3.80
2023-02-03T01:40:11.796Z,3.85
2023-02-03T01:42:38.386Z,3.89
2023-02-03T01:45:05.257Z,3.65
2023-02-03T01:47:39.825Z,3.92
2023-02-03T01:50:15.575Z,3.92
2023-02-03T01:52:46.969Z,3.64
2023-02-03T01:55:19.437Z,3.81
2023-02-03T01:57:54.215Z,3.89
2023-02-03T02:00:21.052Z,3.86
2023-02-03T02:02:49.662Z,3.91
2023-02-03T02:05:25.341Z,3.77
2023-02-03T02:07:52.338Z,3.80
2023-02-03T02:10:18.846Z,3.76
2023-02-03T02:12:45.336Z,3.79
2023-02-03T02:15:13.105Z,3.78
2023-02-03T02:18:22.013Z,3.86
2023-02-03T02:21:16.870Z,3.78
2023-02-03T02:24:04.019Z,3.87
2023-02-03T02:26:49.160Z,3.96
2023-02-03T02:29:37.568Z,3.93
2023-02-03T02:32:29.576Z,3.86
2023-02-03T02:34:59.358Z,3.99
2023-02-03T02:38:20.903Z,3.82
2023-02-03T02:41:02.287Z,3.83
2023-02-03T02:43:47.463Z,3.89
2023-02-03T02:46:19.294Z,3.86
2023-02-03T02:49:01.183Z,3.98
2023-02-03T02:51:30.479Z,3.95
2023-02-03T02:54:01.681Z,3.93
2023-02-03T02:56:31.595Z,4.04
2023-02-03T02:59:02.039Z,4.10
2023-02-03T03:01:28.768Z,3.86
2023-02-03T03:03:56.210Z,4.00
2023-02-03T03:06:32.170Z,4.02
2023-02-03T03:09:04.701Z,3.85
2023-02-03T03:11:40.930Z,3.96
2023-02-03T03:14:10.447Z,3.96
2023-02-03T03:16:41.418Z,3.98
2023-02-03T03:19:13.320Z,3.89
2023-02-03T03:21:47.336Z,3.93
2023-02-03T03:24:31.280Z,4.01
2023-02-03T03:27:06.889Z,4.07
2023-02-03T03:29:44.182Z,4.00
2023-02-03T03:32:11.041Z,3.85
2023-02-03T03:34:37.682Z,3.96
2023-02-03T03:37:17.661Z,4.05
2023-02-03T03:39:47.244Z,3.97
2023-02-03T03:42:38.724Z,4.00
2023-02-03T03:45:36.005Z,3.99
2023-02-03T03:48:25.516Z,3.88
2023-02-03T03:51:14.139Z,4.08
2023-02-03T03:53:44.442Z,3.90
2023-02-03T03:56:16.479Z,3.97
2023-02-03T03:58:46.715Z,4.11
2023-02-03T04:01:15.992Z,4.07
2023-02-03T04:03:49.238Z,3.96
2023-02-03T04:06:15.739Z,3.98
2023-02-03T04:08:42.292Z,3.87
2023-02-03T04:11:09.167Z,4.04
2023-02-03T04:13:35.670Z,3.98
2023-02-03T04:16:02.141Z,3.97
2023-02-03T04:18:28.607Z,3.77
2023-02-03T04:20:55.153Z,3.87
2023-02-03T04:23:21.556Z,3.79
2023-02-03T04:25:47.967Z,3.87
2023-02-03T04:28:14.469Z,3.86
2023-02-03T04:30:40.964Z,3.91
2023-02-03T04:33:07.383Z,3.89
2023-02-03T04:35:33.794Z,3.94
2023-02-03T04:38:00.174Z,3.90
2023-02-03T04:40:27.019Z,4.02
2023-02-03T04:42:53.598Z,3.97
2023-02-03T04:45:20.021Z,3.82
2023-02-03T04:47:54.142Z,3.94
2023-02-03T04:50:20.999Z,3.74
2023-02-03T04:52:47.513Z,4.00
2023-02-03T04:55:13.960Z,3.97
2023-02-03T04:57:40.357Z,3.85
2023-02-03T05:00:07.485Z,3.88
2023-02-03T05:02:33.911Z,3.81
2023-02-03T05:05:00.308Z,3.89
2023-02-03T05:07:26.737Z,3.85
2023-02-03T05:09:53.168Z,3.89
2023-02-03T05:12:19.584Z,3.80
2023-02-03T05:14:45.966Z,3.91
2023-02-03T05:17:12.520Z,3.84
2023-02-03T05:19:39.066Z,3.84
2023-02-03T05:22:05.488Z,3.92
2023-02-03T05:24:31.994Z,3.72
2023-02-03T05:26:58.422Z,3.84
2023-02-03T05:29:24.829Z,3.61
2023-02-03T05:31:51.335Z,3.78
2023-02-03T05:34:17.855Z,3.82
2023-02-03T05:36:44.378Z,3.64
2023-02-03T05:39:10.820Z,3.72
2023-02-03T05:41:52.367Z,3.83
2023-02-03T05:44:25.417Z,3.78
2023-02-03T05:46:59.350Z,3.76
2023-02-03T05:49:25.836Z,3.71
2023-02-03T05:51:53.814Z,3.87
2023-02-03T05:54:20.471Z,3.83
2023-02-03T05:56:47.048Z,3.75
2023-02-03T05:59:13.504Z,3.78
2023-02-03T06:01:39.951Z,3.78
2023-02-03T06:04:06.585Z,3.77
2023-02-03T06:06:33.915Z,3.77
2023-02-03T06:09:01.991Z,3.89
2023-02-03T06:11:28.757Z,3.87
2023-02-03T06:13:58.516Z,3.89
2023-02-03T06:16:26.279Z,3.79
2023-02-03T06:18:53.875Z,3.77
2023-02-03T06:21:22.119Z,3.81
2023-02-03T06:23:48.715Z,3.72
2023-02-03T06:26:15.231Z,3.75
2023-02-03T06:28:42.676Z,3.83
2023-02-03T06:31:09.231Z,3.71
2023-02-03T06:33:35.855Z,3.78
2023-02-03T06:36:02.288Z,3.88
2023-02-03T06:38:28.738Z,3.89
2023-02-03T06:40:55.125Z,3.79
2023-02-03T06:43:22.199Z,3.90
2023-02-03T06:45:48.617Z,3.97
2023-02-03T06:48:15.384Z,3.91
2023-02-03T06:50:42.133Z,3.96
2023-02-03T06:53:08.708Z,3.87
2023-02-03T06:55:35.132Z,3.80
2023-02-03T06:58:01.661Z,3.87
2023-02-03T07:00:28.533Z,3.91
2023-02-03T07:02:57.410Z,3.84
2023-02-03T07:05:24.379Z,4.00
2023-02-03T07:07:52.010Z,3.93
2023-02-03T07:10:18.879Z,3.98
2023-02-03T07:12:45.342Z,3.83
2023-02-03T07:15:13.100Z,3.90
2023-02-03T07:17:39.537Z,3.89
2023-02-03T07:20:06.991Z,3.97
2023-02-03T07:22:33.464Z,3.80
2023-02-03T07:24:59.862Z,3.83
2023-02-03T07:27:27.902Z,3.96
2023-02-03T07:29:54.344Z,4.01
2023-02-03T07:32:20.722Z,4.04
2023-02-03T07:34:47.118Z,4.06
2023-02-03T07:37:13.511Z,4.18
2023-02-03T07:39:39.903Z,4.11
2023-02-03T07:42:06.568Z,4.15
2023-02-03T07:44:36.765Z,4.22
2023-02-03T07:47:03.215Z,4.10
2023-02-03T07:49:29.641Z,4.04
2023-02-03T07:51:56.580Z,4.12
2023-02-03T07:54:23.000Z,4.19
2023-02-03T07:56:49.447Z,4.34
2023-02-03T07:59:16.985Z,4.36
2023-02-03T08:01:43.514Z,4.44
2023-02-03T08:04:12.068Z,4.36
2023-02-03T08:06:38.514Z,4.42
2023-02-03T08:09:04.963Z,4.41
2023-02-03T08:11:32.531Z,4.46
2023-02-03T08:13:59.060Z,4.43
2023-02-03T08:16:25.487Z,4.53
2023-02-03T08:18:52.099Z,4.53
2023-02-03T08:21:18.503Z,4.44
2023-02-03T08:23:44.959Z,4.57
2023-02-03T08:26:11.407Z,4.53
2023-02-03T08:28:37.860Z,4.59
2023-02-03T08:31:10.626Z,4.63
2023-02-03T08:33:37.138Z,4.74
2023-02-03T08:36:05.692Z,4.70
2023-02-03T08:38:32.321Z,4.59
2023-02-03T08:40:59.005Z,4.69
2023-02-03T08:43:25.410Z,4.58
2023-02-03T08:45:52.001Z,4.62
2023-02-03T08:48:18.491Z,4.64
2023-02-03T08:50:51.816Z,4.60
2023-02-03T08:53:18.788Z,4.69
2023-02-03T08:55:45.240Z,4.61
2023-02-03T08:58:11.733Z,4.74
2023-02-03T09:00:38.320Z,4.95
2023-02-03T09:03:04.794Z,4.75
2023-02-03T09:05:32.293Z,4.79
2023-02-03T09:07:58.864Z,4.87
2023-02-03T09:10:25.575Z,4.98
2023-02-03T09:12:52.225Z,4.91
2023-02-03T09:15:18.647Z,4.87
2023-02-03T09:17:45.149Z,4.85
2023-02-03T09:20:14.968Z,4.97
2023-02-03T09:22:41.415Z,4.86
2023-02-03T09:25:08.055Z,5.00
2023-02-03T09:27:34.523Z,4.99
2023-02-03T09:30:00.981Z,4.97
2023-02-03T09:32:27.416Z,5.18
2023-02-03T09:34:53.832Z,5.15
2023-02-03T09:37:20.214Z,5.05
2023-02-03T09:39:48.700Z,5.27
2023-02-03T09:42:29.798Z,5.42
2023-02-03T09:45:09.260Z,5.30
2023-02-03T09:47:41.417Z,5.28
2023-02-03T09:50:15.708Z,5.35
2023-02-03T09:52:44.144Z,5.50
2023-02-03T09:55:28.201Z,5.43
2023-02-03T09:57:58.676Z,5.58
2023-02-03T10:00:35.003Z,5.55
2023-02-03T10:03:36.494Z,5.60
2023-02-03T10:06:02.929Z,5.51
2023-02-03T10:08:57.452Z,5.71
2023-02-03T10:11:57.623Z,5.56
2023-02-03T10:14:48.364Z,5.59
2023-02-03T10:17:30.803Z,5.59
2023-02-03T10:20:12.621Z,5.73
2023-02-03T10:22:52.074Z,5.56
2023-02-03T10:25:34.040Z,5.75
2023-02-03T10:28:05.104Z,5.72
2023-02-03T10:30:45.347Z,5.78
2023-02-03T10:33:17.984Z,5.82
2023-02-03T10:36:16.835Z,5.83
2023-02-03T10:38:54.871Z,5.78
2023-02-03T10:41:23.161Z,5.82
2023-02-03T10:43:52.063Z,5.87
2023-02-03T10:46:34.147Z,5.99
2023-02-03T10:49:00.772Z,6.02
2023-02-03T10:51:33.073Z,5.95
2023-02-03T10:54:00.548Z,5.80
2023-02-03T10:56:32.828Z,5.98
2023-02-03T10:59:00.479Z,6.00
2023-02-03T11:01:42.210Z,5.98
2023-02-03T11:04:28.419Z,5.93
2023-02-03T11:07:05.920Z,6.06
2023-02-03T11:09:41.302Z,5.98
2023-02-03T11:12:20.991Z,6.14
2023-02-03T11:14:49.919Z,6.13
2023-02-03T11:17:29.575Z,6.11
2023-02-03T11:20:17.057Z,6.05
2023-02-03T11:22:44.876Z,6.31
2023-02-03T11:25:43.445Z,6.08
2023-02-03T11:28:24.463Z,5.59
2023-02-03T11:30:59.036Z,6.26
2023-02-03T11:33:28.694Z,6.23
2023-02-03T11:35:59.752Z,6.26
2023-02-03T11:38:36.679Z,6.17
2023-02-03T11:41:03.324Z,6.19
2023-02-03T11:43:30.460Z,6.32
2023-02-03T11:46:08.233Z,6.41
2023-02-03T11:48:46.827Z,6.39
2023-02-03T11:51:28.452Z,6.42
2023-02-03T11:54:22.922Z,6.35
2023-02-03T11:57:07.758Z,6.37
2023-02-03T11:59:37.990Z,6.37
2023-02-03T12:02:27.619Z,6.35
2023-02-03T12:04:54.143Z,6.35
2023-02-03T12:07:32.790Z,6.25
2023-02-03T12:10:25.513Z,6.09
2023-02-03T12:13:01.161Z,6.24
2023-02-03T12:15:42.904Z,6.27
2023-02-03T12:18:43.553Z,6.24
2023-02-03T12:21:31.900Z,6.22
2023-02-03T12:24:20.121Z,6.28
2023-02-03T12:27:14.710Z,6.39
2023-02-03T12:29:45.821Z,6.27
2023-02-03T12:32:36.772Z,6.20
2023-02-03T12:35:15.565Z,6.22
2023-02-03T12:37:57.245Z,6.23
2023-02-03T12:40:50.637Z,6.22
2023-02-03T12:43:17.010Z,6.34
2023-02-03T12:45:51.143Z,6.32
2023-02-03T12:48:22.962Z,6.32
2023-02-03T12:50:54.149Z,6.39
2023-02-03T12:53:28.250Z,6.39
2023-02-03T12:56:02.876Z,6.38
2023-02-03T12:58:37.882Z,6.36
2023-02-03T13:01:24.412Z,6.36
2023-02-03T13:04:12.950Z,6.35
2023-02-03T13:07:10.811Z,6.38
2023-02-03T13:09:45.824Z,6.34
2023-02-03T13:12:24.000Z,6.18
2023-02-03T13:15:06.349Z,6.19
2023-02-03T13:17:42.132Z,6.21
2023-02-03T13:20:21.851Z,6.22
2023-02-03T13:22:48.388Z,6.20
2023-02-03T13:25:22.445Z,6.12
2023-02-03T13:28:06.442Z,6.19
2023-02-03T13:30:46.424Z,6.01
2023-02-03T13:33:40.240Z,6.15
2023-02-03T13:36:24.846Z,6.15
2023-02-03T13:39:09.748Z,6.15
2023-02-03T13:41:53.501Z,5.89
2023-02-03T13:44:28.333Z,6.06
2023-02-03T13:46:57.826Z,6.00
2023-02-03T13:49:34.882Z,5.98
2023-02-03T13:52:01.690Z,5.97
2023-02-03T13:54:36.087Z,6.06
2023-02-03T13:57:05.888Z,5.94
2023-02-03T13:59:38.700Z,6.00
2023-02-03T14:02:23.536Z,5.91
2023-02-03T14:04:56.273Z,5.85
2023-02-03T14:07:40.955Z,5.86
2023-02-03T14:10:15.482Z,5.90
2023-02-03T14:12:51.059Z,6.00
2023-02-03T14:15:23.583Z,5.89
2023-02-03T14:17:50.099Z,5.98
2023-02-03T14:20:25.876Z,5.96
2023-02-03T14:23:07.651Z,6.02
2023-02-03T14:25:43.641Z,5.88
2023-02-03T14:28:20.059Z,5.81
2023-02-03T14:31:06.545Z,5.87
2023-02-03T14:34:06.168Z,5.90
2023-02-03T14:36:38.634Z,5.90
2023-02-03T14:39:17.312Z,5.85
2023-02-03T14:42:02.091Z,5.84
2023-02-03T14:44:31.535Z,5.83
2023-02-03T14:47:08.273Z,5.77
2023-02-03T14:50:03.559Z,5.67
2023-02-03T14:52:44.927Z,5.72
2023-02-03T14:55:28.753Z,5.69
2023-02-03T14:58:02.387Z,5.83
2023-02-03T15:00:34.636Z,5.88
2023-02-03T15:03:09.971Z,5.90
2023-02-03T15:05:44.163Z,5.88
2023-02-03T15:08:39.986Z,5.91
2023-02-03T15:11:23.362Z,5.82
2023-02-03T15:13:49.970Z,5.63
2023-02-03T15:16:20.124Z,5.77
2023-02-03T15:18:55.095Z,5.80
2023-02-03T15:21:24.893Z,5.82
2023-02-03T15:23:52.747Z,5.70
2023-02-03T15:26:27.327Z,5.69
2023-02-03T15:28:59.544Z,5.57
2023-02-03T15:31:34.036Z,5.71
2023-02-03T15:34:07.868Z,5.65
2023-02-03T15:36:49.557Z,5.59
2023-02-03T15:39:27.058Z,5.59
2023-02-03T15:41:56.765Z,5.67
2023-02-03T15:44:39.235Z,5.53
2023-02-03T15:47:28.246Z,5.60
2023-02-03T15:50:06.561Z,5.58
2023-02-03T15:52:38.010Z,5.49
2023-02-03T15:55:24.349Z,5.55
2023-02-03T15:57:51.222Z,5.53
2023-02-03T16:00:35.163Z,5.60
2023-02-03T16:03:03.225Z,5.58
2023-02-03T16:05:33.425Z,5.60
2023-02-03T16:08:27.159Z,5.56
2023-02-03T16:10:53.722Z,5.55
2023-02-03T16:13:25.832Z,5.55
2023-02-03T16:16:15.083Z,5.51
2023-02-03T16:18:54.299Z,5.45
2023-02-03T16:21:50.792Z,5.47
2023-02-03T16:24:32.873Z,5.52
2023-02-03T16:27:27.667Z,5.54
2023-02-03T16:30:33.624Z,5.46
2023-02-03T16:33:28.388Z,5.37
2023-02-03T16:36:21.097Z,5.40
2023-02-03T16:39:08.357Z,5.39
2023-02-03T16:41:55.357Z,5.24
2023-02-03T16:44:40.441Z,5.30
2023-02-03T16:47:44.749Z,5.34
2023-02-03T16:50:41.725Z,5.23
2023-02-03T16:53:20.230Z,5.33
2023-02-03T16:55:47.817Z,5.24
2023-02-03T16:58:14.287Z,5.24
2023-02-03T17:00:42.802Z,5.27
2023-02-03T17:03:14.574Z,5.28
2023-02-03T17:05:44.251Z,5.32
2023-02-03T17:08:11.256Z,5.32
2023-02-03T17:10:39.702Z,5.33
2023-02-03T17:13:07.867Z,5.25
2023-02-03T17:15:39.161Z,5.40
2023-02-03T17:18:05.707Z,5.27
2023-02-03T17:20:32.176Z,5.15
2023-02-03T17:22:58.692Z,5.16
2023-02-03T17:25:25.358Z,5.16
2023-02-03T17:27:51.815Z,5.12
2023-02-03T17:30:18.459Z,5.13
2023-02-03T17:32:44.882Z,5.23
2023-02-03T17:35:11.500Z,5.19
2023-02-03T17:37:37.961Z,5.12
2023-02-03T17:54:07.185Z,5.02
2023-02-03T17:56:35.660Z,5.18
2023-02-03T17:59:04.760Z,5.13
2023-02-03T18:01:32.221Z,4.99
2023-02-03T18:04:04.548Z,5.03
2023-02-03T18:06:35.094Z,4.99
2023-02-03T18:09:07.467Z,5.03
2023-02-03T18:11:35.421Z,4.91
2023-02-03T18:14:02.500Z,5.01
2023-02-03T18:16:33.034Z,4.94
2023-02-03T18:19:00.911Z,4.96
2023-02-03T18:21:27.466Z,5.03
2023-02-03T18:23:59.315Z,4.97
2023-02-03T18:26:28.772Z,4.82
2023-02-03T18:28:55.887Z,4.98
2023-02-03T18:31:22.445Z,4.87
2023-02-03T18:33:49.607Z,4.89
2023-02-03T18:36:16.764Z,4.87
2023-02-03T18:38:45.118Z,4.77
2023-02-03T18:41:17.778Z,4.89
2023-02-03T18:43:45.297Z,4.95
2023-02-03T18:46:15.867Z,4.83
2023-02-03T18:48:42.393Z,4.83
2023-02-03T18:51:10.771Z,4.71
2023-02-03T18:53:38.318Z,4.69
2023-02-03T18:56:09.366Z,4.72
2023-02-03T18:58:40.139Z,4.78
2023-02-03T19:01:07.142Z,4.65
2023-02-03T19:03:34.369Z,4.62
2023-02-03T19:06:00.990Z,4.60
2023-02-03T19:08:27.674Z,4.57
2023-02-03T19:10:56.046Z,4.61
2023-02-03T19:13:24.025Z,4.49
2023-02-03T19:15:51.607Z,4.39
2023-02-03T19:18:18.152Z,4.43
2023-02-03T19:20:44.936Z,4.39
2023-02-03T19:23:12.308Z,4.36
2023-02-03T19:25:39.109Z,4.42
2023-02-03T19:28:14.332Z,4.45
2023-02-03T19:30:44.451Z,4.47
2023-02-03T19:33:11.370Z,4.29
2023-02-03T19:35:39.148Z,4.44
2023-02-03T19:38:05.718Z,4.42
2023-02-03T19:40:32.592Z,4.34
2023-02-03T19:42:59.564Z,4.41
2023-02-03T19:45:26.953Z,4.24
2023-02-03T19:47:53.845Z,3.78
2023-02-03T19:50:20.672Z,4.32
2023-02-03T19:52:52.315Z,4.34
2023-02-03T19:55:40.936Z,4.41
2023-02-03T19:58:11.399Z,4.27
2023-02-03T20:00:38.192Z,4.27
2023-02-03T20:03:06.215Z,4.26
2023-02-03T20:05:34.126Z,4.35
2023-02-03T20:08:00.891Z,4.20
2023-02-03T20:10:28.245Z,4.25
2023-02-03T20:12:55.114Z,4.36
2023-02-03T20:15:21.792Z,4.34
2023-02-03T20:17:49.154Z,4.17
2023-02-03T20:20:20.353Z,4.21
2023-02-03T20:22:47.176Z,4.25
2023-02-03T20:25:14.273Z,4.26
2023-02-03T20:27:40.919Z,4.31
2023-02-03T20:30:07.887Z,4.34
2023-02-03T20:32:34.620Z,4.39
2023-02-03T20:35:03.815Z,4.34
2023-02-03T20:37:30.415Z,4.27
2023-02-03T20:39:56.852Z,4.38
2023-02-03T20:42:23.323Z,4.29
2023-02-03T20:44:49.796Z,4.40
2023-02-03T20:47:18.748Z,4.41
2023-02-03T20:49:46.201Z,4.45
2023-02-03T20:52:14.460Z,4.53
2023-02-03T20:54:41.820Z,4.33
2023-02-03T20:57:17.351Z,4.44
2023-02-03T20:59:44.894Z,4.48
2023-02-03T21:02:19.401Z,4.40
2023-02-03T21:04:58.010Z,4.42
2023-02-03T21:07:27.519Z,4.44
2023-02-03T21:09:54.778Z,4.37
2023-02-03T21:12:21.482Z,4.46
2023-02-03T21:14:48.931Z,4.49
2023-02-03T21:17:25.870Z,4.54
2023-02-03T21:19:53.889Z,4.59
2023-02-03T21:22:37.808Z,4.56
2023-02-03T21:25:04.647Z,4.48
2023-02-03T21:27:33.390Z,4.54
2023-02-03T21:30:02.880Z,4.55
2023-02-03T21:32:40.682Z,4.62
2023-02-03T21:35:31.788Z,4.59
2023-02-03T21:38:03.941Z,4.50
2023-02-03T21:40:34.633Z,4.59
2023-02-03T21:43:03.171Z,4.59
2023-02-03T21:45:41.047Z,4.53
2023-02-03T21:48:30.693Z,4.62
2023-02-03T21:51:01.998Z,4.63
2023-02-03T21:53:31.951Z,4.58
2023-02-03T21:56:15.282Z,4.48
2023-02-03T21:58:44.184Z,4.49
2023-02-03T22:01:16.342Z,4.43
2023-02-03T22:03:51.525Z,4.48
2023-02-03T22:06:25.426Z,4.44
2023-02-03T22:08:54.556Z,4.42
2023-02-03T22:11:22.860Z,4.53
2023-02-03T22:13:49.651Z,4.43
2023-02-03T22:16:17.471Z,4.34
2023-02-03T22:18:45.944Z,4.25
2023-02-03T22:21:12.779Z,4.32
2023-02-03T22:23:40.522Z,4.16
2023-02-03T22:26:08.268Z,4.26
2023-02-03T22:28:35.285Z,4.38
2023-02-03T22:31:04.246Z,4.02
2023-02-03T22:33:31.942Z,4.17
2023-02-03T22:35:58.687Z,4.25
2023-02-03T22:38:25.913Z,4.28
2023-02-03T22:40:53.165Z,4.28
2023-02-03T22:43:19.592Z,4.15
2023-02-03T22:45:46.337Z,4.19
2023-02-03T22:48:12.803Z,4.18
2023-02-03T22:50:39.472Z,4.26
2023-02-03T22:53:07.053Z,4.12
2023-02-03T22:55:33.624Z,4.15
2023-02-03T22:58:00.131Z,4.06
2023-02-03T23:00:27.254Z,4.14
2023-02-03T23:02:54.533Z,4.05
2023-02-03T23:05:21.762Z,4.05
2023-02-03T23:07:49.015Z,4.07
2023-02-03T23:10:18.860Z,4.14
2023-02-03T23:12:45.615Z,4.13
2023-02-03T23:15:13.632Z,4.11
2023-02-03T23:17:40.834Z,4.14
2023-02-03T23:20:09.147Z,3.96
2023-02-03T23:22:35.688Z,3.94
2023-02-03T23:25:02.647Z,3.92
2023-02-03T23:27:29.138Z,4.00
2023-02-03T23:29:55.608Z,4.01
2023-02-03T23:32:22.166Z,4.00
2023-02-03T23:35:07.453Z,4.03
2023-02-03T23:37:33.957Z,4.07
2023-02-03T23:40:00.540Z,3.87
2023-02-03T23:42:27.060Z,4.00
2023-02-03T23:44:53.515Z,4.00
2023-02-03T23:47:19.997Z,3.96
2023-02-03T23:49:46.459Z,3.95
2023-02-03T23:52:12.943Z,3.93
2023-02-03T23:54:39.428Z,3.88
2023-02-03T23:57:05.990Z,3.91
2023-02-03T23:59:32.421Z,3.90
